createdAt,value
2022-11-08T00:01:37.261Z,12.36
2022-11-08T00:03:09.069Z,12.32
2022-11-08T00:04:40.632Z,12.29
2022-11-08T00:06:31.092Z,12.25
2022-11-08T00:08:22.156Z,12.23
2022-11-08T00:10:12.207Z,12.20
2022-11-08T00:12:02.503Z,12.16
2022-11-08T00:13:52.459Z,12.17
2022-11-08T00:15:24.073Z,12.19
2022-11-08T00:16:55.569Z,12.18
2022-11-08T00:18:27.145Z,12.21
2022-11-08T00:19:58.725Z,12.25
2022-11-08T00:21:30.271Z,12.30
2022-11-08T00:23:01.914Z,12.35
2022-11-08T00:24:35.023Z,12.35
2022-11-08T00:26:06.987Z,12.35
2022-11-08T00:27:38.497Z,12.35
2022-11-08T00:29:10.097Z,12.38
2022-11-08T00:30:42.098Z,12.38
2022-11-08T00:32:14.645Z,12.37
2022-11-08T00:33:46.367Z,12.33
2022-11-08T00:35:18.248Z,12.28
2022-11-08T00:36:49.869Z,12.23
2022-11-08T00:38:21.453Z,12.19
2022-11-08T00:39:54.201Z,12.19
2022-11-08T00:41:25.687Z,12.18
2022-11-08T00:42:57.228Z,12.18
2022-11-08T00:44:29.040Z,12.19
2022-11-08T00:46:00.519Z,12.22
2022-11-08T00:47:32.472Z,12.23
2022-11-08T00:49:04.063Z,12.24
2022-11-08T00:50:38.312Z,12.23
2022-11-08T00:52:09.985Z,12.23
2022-11-08T00:53:41.973Z,12.23
2022-11-08T00:55:13.540Z,12.17
2022-11-08T00:56:45.401Z,12.14
2022-11-08T00:58:17.356Z,12.11
2022-11-08T00:59:49.194Z,12.10
2022-11-08T01:01:21.058Z,12.08
2022-11-08T01:03:12.609Z,12.08
2022-11-08T01:04:44.445Z,12.10
2022-11-08T01:06:16.259Z,12.11
2022-11-08T01:07:47.778Z,12.12
2022-11-08T01:09:19.330Z,12.15
2022-11-08T01:10:51.353Z,12.19
2022-11-08T01:12:22.955Z,12.23
2022-11-08T01:13:58.270Z,12.24
2022-11-08T01:15:34.061Z,12.21
2022-11-08T01:17:05.562Z,12.22
2022-11-08T01:18:37.203Z,12.22
2022-11-08T01:20:08.976Z,12.17
2022-11-08T01:21:40.599Z,12.17
2022-11-08T01:23:12.570Z,12.16
2022-11-08T01:24:44.231Z,12.16
2022-11-08T01:26:16.864Z,12.17
2022-11-08T01:27:48.426Z,12.19
2022-11-08T01:29:19.975Z,12.20
2022-11-08T01:30:51.547Z,12.20
2022-11-08T01:32:23.143Z,12.23
2022-11-08T01:33:54.717Z,12.25
2022-11-08T01:35:26.381Z,12.29
2022-11-08T01:36:57.890Z,12.30
2022-11-08T01:38:29.540Z,12.30
2022-11-08T01:40:01.036Z,12.27
2022-11-08T01:41:32.602Z,12.26
2022-11-08T01:43:22.803Z,12.22
2022-11-08T01:45:01.205Z,12.21
2022-11-08T01:46:36.149Z,12.19
2022-11-08T01:48:07.682Z,12.21
2022-11-08T01:49:43.617Z,12.23
2022-11-08T01:51:15.789Z,12.28
2022-11-08T01:52:51.555Z,12.31
2022-11-08T01:54:28.950Z,12.36
2022-11-08T01:56:00.444Z,12.37
2022-11-08T01:57:52.245Z,12.31
2022-11-08T01:59:23.731Z,12.26
2022-11-08T02:00:55.443Z,12.18
2022-11-08T02:02:27.077Z,12.13
2022-11-08T02:03:58.766Z,12.09
2022-11-08T02:05:30.268Z,12.06
2022-11-08T02:07:02.587Z,12.04
2022-11-08T02:08:38.263Z,12.03
2022-11-08T02:10:10.185Z,12.03
2022-11-08T02:11:41.682Z,12.03
2022-11-08T02:13:17.424Z,12.02
2022-11-08T02:14:48.964Z,12.00
2022-11-08T02:16:20.568Z,12.00
2022-11-08T02:17:52.838Z,12.00
2022-11-08T02:19:28.226Z,12.02
2022-11-08T02:21:08.906Z,12.04
2022-11-08T02:22:42.014Z,12.06
2022-11-08T02:24:13.594Z,12.06
2022-11-08T02:25:45.133Z,12.06
2022-11-08T02:27:16.680Z,12.07
2022-11-08T02:28:48.914Z,12.04
2022-11-08T02:30:20.446Z,12.00
2022-11-08T02:31:52.271Z,11.99
2022-11-08T02:33:24.177Z,11.97
2022-11-08T02:34:57.035Z,11.94
2022-11-08T02:36:28.743Z,11.94
2022-11-08T02:38:00.289Z,11.95
2022-11-08T02:39:33.109Z,11.96
2022-11-08T02:41:04.737Z,11.96
2022-11-08T02:42:37.508Z,11.99
2022-11-08T02:44:09.017Z,12.02
2022-11-08T02:45:40.972Z,12.02
2022-11-08T02:47:12.706Z,12.06
2022-11-08T02:48:44.222Z,12.01
2022-11-08T02:50:15.772Z,11.96
2022-11-08T02:51:47.373Z,11.94
2022-11-08T02:53:18.976Z,11.93
2022-11-08T02:54:50.572Z,11.90
2022-11-08T02:56:23.449Z,11.90
2022-11-08T02:57:55.172Z,11.87
2022-11-08T02:59:26.802Z,11.91
2022-11-08T03:00:58.669Z,11.89
2022-11-08T03:02:30.332Z,11.88
2022-11-08T03:04:01.988Z,11.87
2022-11-08T03:05:33.634Z,11.88
2022-11-08T03:07:05.282Z,11.92
2022-11-08T03:08:37.157Z,11.97
2022-11-08T03:10:08.891Z,12.02
2022-11-08T03:11:40.368Z,12.03
2022-11-08T03:13:11.904Z,12.01
2022-11-08T03:14:43.479Z,12.03
2022-11-08T03:16:15.062Z,12.02
2022-11-08T03:17:46.674Z,11.97
2022-11-08T03:19:18.253Z,11.94
2022-11-08T03:20:49.858Z,11.93
2022-11-08T03:22:21.369Z,11.91
2022-11-08T03:23:52.897Z,11.89
2022-11-08T03:25:24.415Z,11.89
2022-11-08T03:26:55.984Z,11.87
2022-11-08T03:28:28.161Z,11.86
2022-11-08T03:30:00.040Z,11.86
2022-11-08T03:31:31.665Z,11.88
2022-11-08T03:33:03.221Z,11.88
2022-11-08T03:34:34.804Z,11.88
2022-11-08T03:36:06.471Z,11.89
2022-11-08T03:37:38.085Z,11.90
2022-11-08T03:39:10.444Z,11.93
2022-11-08T03:40:42.447Z,11.94
2022-11-08T03:42:14.066Z,11.95
2022-11-08T03:43:45.700Z,11.98
2022-11-08T03:45:17.891Z,11.96
2022-11-08T03:46:49.416Z,11.94
2022-11-08T03:48:23.515Z,11.94
2022-11-08T03:49:55.076Z,11.93
2022-11-08T03:51:26.560Z,11.94
2022-11-08T03:52:58.235Z,11.94
2022-11-08T03:54:29.751Z,11.94
2022-11-08T03:56:01.248Z,11.98
2022-11-08T03:57:32.780Z,11.98
2022-11-08T03:59:04.240Z,11.99
2022-11-08T04:00:35.910Z,12.02
2022-11-08T04:02:07.492Z,12.04
2022-11-08T04:03:39.057Z,12.03
2022-11-08T04:05:11.219Z,12.02
2022-11-08T04:06:42.832Z,12.02
2022-11-08T04:08:14.580Z,12.00
2022-11-08T04:09:46.372Z,11.98
2022-11-08T04:11:36.399Z,11.97
2022-11-08T04:13:27.160Z,11.96
2022-11-08T04:15:17.192Z,11.96
2022-11-08T04:16:48.859Z,11.93
2022-11-08T04:18:56.356Z,11.92
2022-11-08T04:20:46.415Z,11.93
2022-11-08T04:22:17.987Z,11.94
2022-11-08T04:23:49.840Z,11.94
2022-11-08T04:25:21.385Z,11.96
2022-11-08T04:26:52.862Z,11.95
2022-11-08T04:28:25.530Z,11.97
2022-11-08T04:29:57.799Z,11.99
2022-11-08T04:31:29.317Z,12.02
2022-11-08T04:33:01.763Z,12.03
2022-11-08T04:34:33.312Z,12.05
2022-11-08T04:36:05.921Z,12.06
2022-11-08T04:37:37.492Z,12.06
2022-11-08T04:39:09.167Z,12.03
2022-11-08T04:40:40.688Z,12.06
2022-11-08T04:42:12.314Z,12.07
2022-11-08T04:43:43.940Z,12.06
2022-11-08T04:45:15.561Z,12.07
2022-11-08T04:46:47.064Z,12.06
2022-11-08T04:48:19.058Z,12.05
2022-11-08T04:49:50.976Z,12.04
2022-11-08T04:51:29.358Z,12.02
2022-11-08T04:53:01.434Z,12.03
2022-11-08T04:54:32.970Z,12.01
2022-11-08T04:56:08.484Z,12.00
2022-11-08T04:57:40.298Z,12.00
2022-11-08T04:59:12.400Z,12.00
2022-11-08T05:00:44.080Z,12.00
2022-11-08T05:02:15.989Z,11.99
2022-11-08T05:03:48.312Z,11.98
2022-11-08T05:05:19.964Z,11.97
2022-11-08T05:06:51.507Z,11.93
2022-11-08T05:08:23.081Z,11.92
2022-11-08T05:09:59.875Z,11.93
2022-11-08T05:11:33.798Z,11.94
2022-11-08T05:13:05.772Z,11.93
2022-11-08T05:14:37.852Z,11.93
2022-11-08T05:16:16.262Z,11.93
2022-11-08T05:17:47.813Z,11.95
2022-11-08T05:19:39.554Z,11.97
2022-11-08T05:21:30.197Z,12.02
2022-11-08T05:23:20.470Z,12.06
2022-11-08T05:24:52.105Z,12.09
2022-11-08T05:26:23.838Z,12.10
2022-11-08T05:27:55.376Z,12.06
2022-11-08T05:29:27.019Z,12.03
2022-11-08T05:30:58.707Z,12.00
2022-11-08T05:32:30.190Z,11.99
2022-11-08T05:34:01.851Z,11.97
2022-11-08T05:35:33.961Z,11.97
2022-11-08T05:37:05.747Z,11.94
2022-11-08T05:38:37.512Z,11.94
2022-11-08T05:40:09.616Z,11.95
2022-11-08T05:41:41.169Z,11.96
2022-11-08T05:43:12.819Z,11.99
2022-11-08T05:44:44.691Z,11.99
2022-11-08T05:46:16.670Z,11.99
2022-11-08T05:47:48.290Z,11.99
2022-11-08T05:49:19.955Z,11.98
2022-11-08T05:50:52.146Z,11.99
2022-11-08T05:52:23.709Z,12.01
2022-11-08T05:53:55.265Z,12.03
2022-11-08T05:55:27.003Z,12.08
2022-11-08T05:56:58.575Z,12.16
2022-11-08T05:58:30.406Z,12.22
2022-11-08T06:00:02.276Z,12.22
2022-11-08T06:01:34.228Z,12.23
2022-11-08T06:03:06.246Z,12.26
2022-11-08T06:04:37.879Z,12.30
2022-11-08T06:06:13.473Z,12.35
2022-11-08T06:07:45.049Z,12.38
2022-11-08T06:09:16.744Z,12.44
2022-11-08T06:10:48.361Z,12.49
2022-11-08T06:12:20.279Z,12.49
2022-11-08T06:13:52.212Z,12.53
2022-11-08T06:15:23.812Z,12.56
2022-11-08T06:16:55.370Z,12.56
2022-11-08T06:18:27.026Z,12.55
2022-11-08T06:19:58.705Z,12.57
2022-11-08T06:21:30.385Z,12.59
2022-11-08T06:23:02.348Z,12.61
2022-11-08T06:24:33.980Z,12.66
2022-11-08T06:26:05.974Z,12.70
2022-11-08T06:27:37.782Z,12.68
2022-11-08T06:29:09.392Z,12.67
2022-11-08T06:30:41.420Z,12.69
2022-11-08T06:32:13.624Z,12.73
2022-11-08T06:33:45.688Z,12.76
2022-11-08T06:35:17.240Z,12.83
2022-11-08T06:36:48.913Z,12.89
2022-11-08T06:38:20.713Z,12.96
2022-11-08T06:39:52.528Z,12.99
2022-11-08T06:41:24.530Z,12.92
2022-11-08T06:42:56.362Z,12.90
2022-11-08T06:44:27.964Z,12.95
2022-11-08T06:46:00.040Z,12.99
2022-11-08T06:47:31.768Z,12.96
2022-11-08T06:49:03.246Z,12.96
2022-11-08T06:50:34.939Z,12.93
2022-11-08T06:52:06.464Z,12.94
2022-11-08T06:53:38.071Z,12.96
2022-11-08T06:55:09.783Z,13.02
2022-11-08T06:56:42.051Z,13.12
2022-11-08T06:58:13.641Z,13.22
2022-11-08T06:59:45.256Z,13.36
2022-11-08T07:01:17.018Z,13.48
2022-11-08T07:02:53.303Z,13.59
2022-11-08T07:04:25.043Z,13.73
2022-11-08T07:05:56.549Z,13.87
2022-11-08T07:07:28.173Z,13.94
2022-11-08T07:08:59.854Z,14.00
2022-11-08T07:10:31.789Z,14.04
2022-11-08T07:12:03.498Z,14.07
2022-11-08T07:13:35.182Z,14.09
2022-11-08T07:15:07.017Z,13.98
2022-11-08T07:16:38.761Z,13.90
2022-11-08T07:18:11.390Z,13.87
2022-11-08T07:19:43.141Z,13.89
2022-11-08T07:21:14.874Z,13.95
2022-11-08T07:22:46.543Z,14.04
2022-11-08T07:24:18.084Z,14.17
2022-11-08T07:25:49.804Z,14.23
2022-11-08T07:27:21.424Z,14.32
2022-11-08T07:28:53.048Z,14.45
2022-11-08T07:30:24.721Z,14.58
2022-11-08T07:31:56.482Z,14.65
2022-11-08T07:33:28.036Z,14.69
2022-11-08T07:34:59.825Z,14.69
2022-11-08T07:36:31.349Z,14.71
2022-11-08T07:38:02.973Z,14.71
2022-11-08T07:39:34.549Z,14.79
2022-11-08T07:41:06.195Z,14.90
2022-11-08T07:43:04.852Z,15.03
2022-11-08T07:44:30.081Z,15.12
2022-11-08T07:46:02.302Z,15.22
2022-11-08T07:47:33.907Z,15.30
2022-11-08T07:49:05.513Z,15.41
2022-11-08T07:50:37.067Z,15.57
2022-11-08T07:52:08.846Z,15.75
2022-11-08T07:53:40.610Z,15.91
2022-11-08T07:55:12.712Z,16.05
2022-11-08T07:56:44.287Z,16.16
2022-11-08T07:58:16.268Z,16.30
2022-11-08T07:59:47.938Z,16.40
2022-11-08T08:01:19.944Z,16.45
2022-11-08T08:02:52.048Z,16.53
2022-11-08T08:04:23.768Z,16.65
2022-11-08T08:06:00.507Z,16.80
2022-11-08T08:07:32.548Z,16.96
2022-11-08T08:09:04.307Z,17.05
2022-11-08T08:10:36.038Z,17.12
2022-11-08T08:12:08.335Z,17.19
2022-11-08T08:13:39.975Z,17.21
2022-11-08T08:15:11.498Z,17.33
2022-11-08T08:16:43.587Z,17.43
2022-11-08T08:18:17.619Z,17.48
2022-11-08T08:19:49.402Z,17.48
2022-11-08T08:21:21.453Z,17.52
2022-11-08T08:22:53.300Z,17.52
2022-11-08T08:24:26.763Z,17.56
2022-11-08T08:25:58.498Z,17.63
2022-11-08T08:27:30.083Z,17.67
2022-11-08T08:29:02.260Z,17.69
2022-11-08T08:30:34.651Z,17.74
2022-11-08T08:32:06.370Z,17.84
2022-11-08T08:33:38.415Z,17.94
2022-11-08T08:35:10.572Z,18.08
2022-11-08T08:36:42.501Z,18.17
2022-11-08T08:38:14.239Z,18.31
2022-11-08T08:39:46.861Z,18.43
2022-11-08T08:41:18.855Z,18.51
2022-11-08T08:42:50.429Z,18.63
2022-11-08T08:44:21.960Z,18.68
2022-11-08T08:45:54.596Z,18.75
2022-11-08T08:47:26.562Z,18.80
2022-11-08T08:48:58.124Z,18.85
2022-11-08T08:50:30.151Z,18.93
2022-11-08T08:52:02.250Z,18.80
2022-11-08T08:53:35.283Z,18.62
2022-11-08T08:55:07.171Z,18.51
2022-11-08T08:56:38.858Z,18.50
2022-11-08T08:58:11.185Z,18.47
2022-11-08T09:03:11.489Z,18.71
2022-11-08T09:04:43.117Z,18.66
2022-11-08T09:06:14.871Z,18.73
2022-11-08T09:07:46.489Z,18.72
2022-11-08T09:09:18.248Z,18.67
2022-11-08T09:10:55.980Z,18.69
2022-11-08T09:12:28.004Z,18.67
2022-11-08T09:13:59.890Z,18.72
2022-11-08T09:15:31.512Z,18.86
2022-11-08T09:17:03.472Z,18.92
2022-11-08T09:18:35.396Z,18.96
2022-11-08T09:20:07.469Z,18.96
2022-11-08T09:21:39.338Z,18.93
2022-11-08T09:23:11.868Z,18.87
2022-11-08T09:24:43.536Z,18.81
2022-11-08T09:26:15.173Z,18.71
2022-11-08T09:27:47.311Z,18.66
2022-11-08T09:29:19.077Z,18.70
2022-11-08T09:30:50.594Z,18.78
2022-11-08T09:32:33.765Z,18.80
2022-11-08T09:34:16.282Z,18.76
2022-11-08T09:35:54.014Z,18.78
2022-11-08T09:37:26.049Z,18.74
2022-11-08T09:38:58.298Z,18.76
2022-11-08T09:40:40.424Z,18.77
2022-11-08T09:42:14.704Z,18.74
2022-11-08T09:43:53.176Z,18.74
2022-11-08T09:45:25.757Z,18.73
2022-11-08T09:46:57.778Z,18.75
2022-11-08T09:48:34.331Z,18.80
2022-11-08T09:50:07.086Z,18.92
2022-11-08T09:51:38.808Z,19.02
2022-11-08T09:53:14.287Z,19.06
2022-11-08T09:54:46.991Z,19.09
2022-11-08T09:56:21.501Z,19.05
2022-11-08T09:58:09.751Z,19.01
2022-11-08T09:59:45.963Z,19.00
2022-11-08T10:01:17.686Z,19.07
2022-11-08T10:02:49.608Z,19.19
2022-11-08T10:04:22.823Z,19.39
2022-11-08T10:05:54.439Z,19.56
2022-11-08T10:07:29.440Z,19.71
2022-11-08T10:09:07.025Z,19.81
2022-11-08T10:10:57.612Z,20.01
2022-11-08T10:13:01.800Z,20.16
2022-11-08T10:14:52.290Z,20.31
2022-11-08T10:16:44.753Z,20.45
2022-11-08T10:18:19.398Z,20.43
2022-11-08T10:19:51.185Z,20.51
2022-11-08T10:21:38.009Z,20.63
2022-11-08T10:23:24.946Z,20.76
2022-11-08T10:25:03.847Z,20.81
2022-11-08T10:26:36.166Z,20.89
2022-11-08T10:28:08.180Z,21.00
2022-11-08T10:29:45.559Z,21.15
2022-11-08T10:31:20.053Z,21.19
2022-11-08T10:32:55.401Z,21.34
2022-11-08T10:34:28.389Z,21.45
2022-11-08T10:36:02.647Z,21.51
2022-11-08T10:37:34.602Z,21.58
2022-11-08T10:39:11.657Z,21.73
2022-11-08T10:40:45.128Z,21.89
2022-11-08T10:42:21.825Z,22.08
2022-11-08T10:43:54.517Z,22.22
2022-11-08T10:45:26.369Z,22.32
2022-11-08T10:46:58.029Z,22.43
2022-11-08T10:48:32.599Z,22.53
2022-11-08T10:50:20.101Z,22.55
2022-11-08T10:51:54.535Z,22.59
2022-11-08T10:53:26.526Z,22.78
2022-11-08T10:54:58.704Z,22.96
2022-11-08T10:56:33.019Z,23.11
2022-11-08T10:58:26.000Z,23.22
2022-11-08T10:59:57.857Z,23.25
2022-11-08T11:01:30.306Z,23.33
2022-11-08T11:03:03.149Z,23.40
2022-11-08T11:04:35.341Z,23.50
2022-11-08T11:06:07.263Z,23.56
2022-11-08T11:07:38.858Z,23.52
2022-11-08T11:09:20.709Z,23.48
2022-11-08T11:10:52.371Z,23.45
2022-11-08T11:12:24.072Z,23.44
2022-11-08T11:14:16.599Z,23.44
2022-11-08T11:15:56.934Z,23.34
2022-11-08T11:17:35.577Z,23.20
2022-11-08T11:19:13.853Z,23.02
2022-11-08T11:20:57.863Z,22.88
2022-11-08T11:22:33.080Z,22.85
2022-11-08T11:24:08.547Z,22.75
2022-11-08T11:25:40.209Z,22.63
2022-11-08T11:27:19.933Z,22.53
2022-11-08T11:29:10.051Z,22.48
2022-11-08T11:30:42.890Z,22.47
2022-11-08T11:32:33.705Z,22.59
2022-11-08T11:34:17.542Z,22.64
2022-11-08T11:35:53.477Z,22.63
2022-11-08T11:37:27.977Z,22.76
2022-11-08T11:38:59.608Z,22.80
2022-11-08T11:40:35.439Z,22.95
2022-11-08T11:44:25.812Z,23.06
2022-11-08T11:46:00.560Z,23.22
2022-11-08T11:47:33.534Z,23.35
2022-11-08T11:49:06.998Z,23.52
2022-11-08T11:50:39.276Z,23.68
2022-11-08T11:52:14.842Z,23.86
2022-11-08T11:53:48.914Z,23.95
2022-11-08T11:55:20.702Z,23.94
2022-11-08T11:56:56.945Z,24.03
2022-11-08T11:58:29.658Z,24.11
2022-11-08T12:00:05.705Z,24.13
2022-11-08T12:01:44.228Z,24.17
2022-11-08T12:03:16.360Z,24.27
2022-11-08T12:05:06.800Z,24.35
2022-11-08T12:06:48.924Z,24.42
2022-11-08T12:08:26.787Z,24.55
2022-11-08T12:10:14.109Z,24.57
2022-11-08T12:12:04.704Z,24.58
2022-11-08T12:13:36.550Z,24.58
2022-11-08T12:15:12.046Z,24.64
2022-11-08T12:16:55.465Z,24.67
2022-11-08T12:18:42.556Z,24.77
2022-11-08T12:20:34.957Z,24.73
2022-11-08T12:22:12.617Z,24.72
2022-11-08T12:23:53.543Z,24.80
2022-11-08T12:25:31.718Z,24.81
2022-11-08T12:27:22.396Z,24.87
2022-11-08T12:29:06.909Z,24.91
2022-11-08T12:30:41.810Z,24.92
2022-11-08T12:32:16.297Z,24.96
2022-11-08T12:34:23.089Z,24.96
2022-11-08T12:35:54.816Z,25.09
2022-11-08T12:37:35.694Z,25.06
2022-11-08T12:39:22.198Z,25.04
2022-11-08T12:40:57.705Z,25.06
2022-11-08T12:42:43.347Z,24.97
2022-11-08T12:44:37.800Z,24.88
2022-11-08T12:46:13.299Z,24.75
2022-11-08T12:47:45.778Z,24.60
2022-11-08T12:49:22.834Z,24.58
2022-11-08T12:51:01.270Z,24.60
2022-11-08T12:52:40.695Z,24.70
2022-11-08T12:54:31.119Z,24.76
2022-11-08T12:56:03.060Z,24.86
2022-11-08T12:57:34.692Z,24.77
2022-11-08T12:59:10.943Z,24.69
2022-11-08T13:00:43.762Z,24.64
2022-11-08T13:02:18.468Z,24.68
2022-11-08T13:03:53.245Z,24.71
2022-11-08T13:05:32.162Z,24.71
2022-11-08T13:07:04.315Z,24.61
2022-11-08T13:08:38.436Z,24.52
2022-11-08T13:10:21.627Z,24.44
2022-11-08T13:11:56.415Z,24.41
2022-11-08T13:13:39.879Z,24.36
2022-11-08T13:15:18.922Z,24.36
2022-11-08T13:17:08.903Z,24.33
2022-11-08T13:18:43.524Z,24.12
2022-11-08T13:20:33.906Z,24.03
2022-11-08T13:22:13.024Z,23.99
2022-11-08T13:23:44.780Z,23.98
2022-11-08T13:25:16.319Z,24.03
2022-11-08T13:26:48.510Z,24.13
2022-11-08T13:28:35.703Z,24.16
2022-11-08T13:30:16.584Z,24.20
2022-11-08T13:31:57.608Z,24.21
2022-11-08T13:33:29.400Z,24.22
2022-11-08T13:35:19.791Z,24.23
2022-11-08T13:37:24.439Z,24.11
2022-11-08T13:39:17.759Z,24.06
2022-11-08T13:41:07.278Z,24.02
2022-11-08T13:42:40.247Z,24.00
2022-11-08T13:44:31.847Z,23.96
2022-11-08T13:46:28.248Z,23.86
2022-11-08T13:48:03.079Z,23.80
2022-11-08T13:49:35.250Z,23.75
2022-11-08T13:51:25.757Z,23.73
2022-11-08T13:53:04.544Z,23.69
2022-11-08T13:54:46.719Z,23.69
2022-11-08T13:56:22.533Z,23.70
2022-11-08T13:57:55.411Z,23.68
2022-11-08T13:59:33.303Z,23.65
2022-11-08T14:01:28.147Z,23.57
2022-11-08T14:02:59.724Z,23.45
2022-11-08T14:04:33.811Z,23.41
2022-11-08T14:06:05.495Z,23.34
2022-11-08T14:07:37.144Z,23.26
2022-11-08T14:09:18.488Z,23.17
2022-11-08T14:11:11.934Z,23.02
2022-11-08T14:12:45.883Z,22.91
2022-11-08T14:14:22.914Z,22.83
2022-11-08T14:15:54.531Z,22.69
2022-11-08T14:17:28.945Z,22.60
2022-11-08T14:19:18.014Z,22.52
2022-11-08T14:20:50.600Z,22.36
2022-11-08T14:22:24.491Z,22.26
2022-11-08T14:23:56.142Z,22.17
2022-11-08T14:25:28.071Z,22.05
2022-11-08T14:26:59.744Z,21.96
2022-11-08T14:28:35.022Z,21.89
2022-11-08T14:30:13.868Z,21.78
2022-11-08T14:31:45.552Z,21.62
2022-11-08T14:33:19.103Z,21.47
2022-11-08T14:34:51.773Z,21.37
2022-11-08T14:36:23.535Z,21.27
2022-11-08T14:37:55.169Z,21.18
2022-11-08T14:39:28.897Z,21.10
2022-11-08T14:41:01.146Z,21.01
2022-11-08T14:42:33.641Z,20.91
2022-11-08T14:44:05.474Z,20.77
2022-11-08T14:45:43.234Z,20.71
2022-11-08T14:47:22.225Z,20.61
2022-11-08T14:48:57.111Z,20.49
2022-11-08T14:50:30.341Z,20.33
2022-11-08T14:52:07.453Z,20.22
2022-11-08T14:53:46.382Z,20.15
2022-11-08T14:55:23.216Z,20.04
2022-11-08T14:56:56.070Z,19.89
2022-11-08T14:58:28.928Z,19.80
2022-11-08T15:00:05.609Z,19.68
2022-11-08T15:01:37.330Z,19.53
2022-11-08T15:03:11.944Z,19.43
2022-11-08T15:04:44.752Z,19.30
2022-11-08T15:06:16.360Z,19.21
2022-11-08T15:07:48.086Z,19.13
2022-11-08T15:09:24.626Z,19.05
2022-11-08T15:11:01.097Z,18.94
2022-11-08T15:12:33.075Z,18.80
2022-11-08T15:14:08.561Z,18.73
2022-11-08T15:15:40.322Z,18.63
2022-11-08T15:17:28.824Z,18.57
2022-11-08T15:19:00.865Z,18.51
2022-11-08T15:20:33.228Z,18.44
2022-11-08T15:22:22.974Z,18.34
2022-11-08T15:23:57.206Z,18.20
2022-11-08T15:25:29.839Z,18.07
2022-11-08T15:27:12.135Z,17.95
2022-11-08T15:28:53.657Z,17.87
2022-11-08T15:30:28.455Z,17.80
2022-11-08T15:32:01.658Z,17.72
2022-11-08T15:33:34.571Z,17.69
2022-11-08T15:35:07.072Z,17.64
2022-11-08T15:36:38.891Z,17.58
2022-11-08T15:38:20.242Z,17.53
2022-11-08T15:39:52.361Z,17.44
2022-11-08T15:41:30.503Z,17.36
2022-11-08T15:43:02.432Z,17.27
2022-11-08T15:44:34.078Z,17.16
2022-11-08T15:46:05.757Z,17.08
2022-11-08T15:47:45.056Z,17.03
2022-11-08T15:49:29.221Z,16.90
2022-11-08T15:51:01.171Z,16.85
2022-11-08T15:52:32.907Z,16.79
2022-11-08T15:54:04.933Z,16.77
2022-11-08T15:55:37.532Z,16.71
2022-11-08T15:59:43.559Z,16.52
2022-11-08T16:01:18.109Z,16.46
2022-11-08T16:02:49.951Z,16.43
2022-11-08T16:04:21.548Z,16.40
2022-11-08T16:05:53.112Z,16.36
2022-11-08T16:07:24.792Z,16.33
2022-11-08T16:08:56.662Z,16.26
2022-11-08T16:10:28.452Z,16.19
2022-11-08T16:12:01.001Z,16.14
2022-11-08T16:13:34.087Z,16.06
2022-11-08T16:15:06.140Z,16.00
2022-11-08T16:16:37.731Z,15.91
2022-11-08T16:18:09.883Z,15.82
2022-11-08T16:19:41.716Z,15.75
2022-11-08T16:21:13.705Z,15.67
2022-11-08T16:22:45.755Z,15.62
2022-11-08T16:24:17.591Z,15.61
2022-11-08T16:25:52.687Z,15.60
2022-11-08T16:27:24.495Z,15.58
2022-11-08T16:28:56.336Z,15.56
2022-11-08T16:30:28.186Z,15.58
2022-11-08T16:31:59.804Z,15.58
2022-11-08T16:33:31.772Z,15.59
2022-11-08T16:35:03.480Z,15.60
2022-11-08T16:36:35.101Z,15.60
2022-11-08T16:38:08.849Z,15.61
2022-11-08T16:39:40.464Z,15.68
2022-11-08T16:41:12.479Z,15.70
2022-11-08T16:42:44.891Z,15.68
2022-11-08T16:44:16.891Z,15.66
2022-11-08T16:46:05.032Z,15.66
2022-11-08T16:47:37.511Z,15.66
2022-11-08T16:49:17.045Z,15.66
2022-11-08T16:50:48.833Z,15.63
2022-11-08T16:52:20.613Z,15.63
2022-11-08T16:53:52.784Z,15.58
2022-11-08T16:55:25.291Z,15.54
2022-11-08T16:57:20.802Z,15.51
2022-11-08T16:58:49.253Z,15.48
2022-11-08T17:00:20.909Z,15.49
2022-11-08T17:01:53.043Z,15.50
2022-11-08T17:03:25.346Z,15.47
2022-11-08T17:04:57.161Z,15.45
2022-11-08T17:06:28.997Z,15.42
2022-11-08T17:08:00.699Z,15.40
2022-11-08T17:09:32.402Z,15.38
2022-11-08T17:11:04.258Z,15.33
2022-11-08T17:12:36.026Z,15.27
2022-11-08T17:14:08.145Z,15.21
2022-11-08T17:15:39.826Z,15.19
2022-11-08T17:17:11.996Z,15.19
2022-11-08T17:18:45.661Z,15.16
2022-11-08T17:20:20.356Z,15.13
2022-11-08T17:21:51.884Z,15.07
2022-11-08T17:23:23.892Z,15.01
2022-11-08T17:24:55.555Z,14.96
2022-11-08T17:26:27.136Z,14.90
2022-11-08T17:27:58.736Z,14.87
2022-11-08T17:29:30.305Z,14.86
2022-11-08T17:31:15.063Z,14.84
2022-11-08T17:32:46.785Z,14.76
2022-11-08T17:34:18.391Z,14.67
2022-11-08T17:35:49.993Z,14.63
2022-11-08T17:37:22.006Z,14.64
2022-11-08T17:38:53.597Z,14.67
2022-11-08T17:40:25.230Z,14.67
2022-11-08T17:41:57.037Z,14.65
2022-11-08T17:43:28.705Z,14.65
2022-11-08T17:45:00.439Z,14.64
2022-11-08T17:46:32.236Z,14.64
2022-11-08T17:48:04.053Z,14.67
2022-11-08T17:49:39.899Z,14.66
2022-11-08T17:51:15.813Z,14.62
2022-11-08T17:52:47.548Z,14.60
2022-11-08T17:54:19.307Z,14.59
2022-11-08T17:55:54.773Z,14.59
2022-11-08T17:57:26.447Z,14.59
2022-11-08T17:58:58.222Z,14.62
2022-11-08T18:00:30.043Z,14.61
2022-11-08T18:02:02.702Z,14.64
2022-11-08T18:03:34.685Z,14.61
2022-11-08T18:05:06.470Z,14.58
2022-11-08T18:06:41.118Z,14.58
2022-11-08T18:08:12.729Z,14.61
2022-11-08T18:09:44.833Z,14.62
2022-11-08T18:11:16.405Z,14.62
2022-11-08T18:12:48.176Z,14.63
2022-11-08T18:14:25.503Z,14.60
2022-11-08T18:16:09.828Z,14.60
2022-11-08T18:17:41.616Z,14.58
2022-11-08T18:19:13.496Z,14.59
2022-11-08T18:20:45.205Z,14.60
2022-11-08T18:22:16.825Z,14.59
2022-11-08T18:23:48.555Z,14.55
2022-11-08T18:25:20.346Z,14.55
2022-11-08T18:26:52.086Z,14.55
2022-11-08T18:28:24.265Z,14.56
2022-11-08T18:29:55.886Z,14.56
2022-11-08T18:31:28.275Z,14.58
2022-11-08T18:32:59.861Z,14.60
2022-11-08T18:34:31.483Z,14.64
2022-11-08T18:36:06.588Z,14.66
2022-11-08T18:37:38.330Z,14.69
2022-11-08T18:39:11.354Z,14.68
2022-11-08T18:40:48.554Z,14.63
2022-11-08T18:42:20.155Z,14.56
2022-11-08T18:43:52.533Z,14.50
2022-11-08T18:45:24.368Z,14.47
2022-11-08T18:46:56.145Z,14.43
2022-11-08T18:48:27.839Z,14.37
2022-11-08T18:50:02.147Z,14.33
2022-11-08T18:51:33.831Z,14.30
2022-11-08T18:53:07.195Z,14.26
2022-11-08T18:54:39.085Z,14.24
2022-11-08T18:56:10.937Z,14.21
2022-11-08T18:57:43.251Z,14.21
2022-11-08T18:59:15.289Z,14.23
2022-11-08T19:00:46.898Z,14.24
2022-11-08T19:02:18.633Z,14.24
2022-11-08T19:03:50.289Z,14.21
2022-11-08T19:05:21.898Z,14.15
2022-11-08T19:06:54.925Z,14.13
2022-11-08T19:08:27.865Z,14.10
2022-11-08T19:09:59.511Z,14.09
2022-11-08T19:11:31.280Z,14.08
2022-11-08T19:13:02.858Z,14.10
2022-11-08T19:14:35.597Z,14.06
2022-11-08T19:16:08.631Z,14.02
2022-11-08T19:17:40.156Z,13.95
2022-11-08T19:19:11.914Z,13.95
2022-11-08T19:20:43.533Z,13.93
2022-11-08T19:22:15.156Z,13.92
2022-11-08T19:23:46.926Z,13.90
2022-11-08T19:25:18.877Z,13.86
2022-11-08T19:26:50.466Z,13.85
2022-11-08T19:28:21.995Z,13.81
2022-11-08T19:29:53.854Z,13.75
2022-11-08T19:31:25.574Z,13.73
2022-11-08T19:32:57.172Z,13.70
2022-11-08T19:34:28.791Z,13.66
2022-11-08T19:36:01.261Z,13.60
2022-11-08T19:37:32.901Z,13.53
2022-11-08T19:39:04.833Z,13.47
2022-11-08T19:40:40.695Z,13.43
2022-11-08T19:42:12.273Z,13.33
2022-11-08T19:43:44.175Z,13.26
2022-11-08T19:45:15.731Z,13.26
2022-11-08T19:46:47.622Z,13.25
2022-11-08T19:48:21.795Z,13.26
2022-11-08T19:49:53.580Z,13.25
2022-11-08T19:51:26.104Z,13.24
2022-11-08T19:52:58.607Z,13.23
2022-11-08T19:54:30.336Z,13.17
2022-11-08T19:56:03.265Z,13.12
2022-11-08T19:57:36.057Z,13.07
2022-11-08T19:59:07.735Z,13.00
2022-11-08T20:00:39.609Z,12.95
2022-11-08T20:02:11.387Z,12.87
2022-11-08T20:03:43.169Z,12.84
2022-11-08T20:05:14.756Z,12.82
2022-11-08T20:06:46.642Z,12.80
2022-11-08T20:08:18.942Z,12.76
2022-11-08T20:09:50.532Z,12.76
2022-11-08T20:11:22.923Z,12.77
2022-11-08T20:12:54.394Z,12.79
2022-11-08T20:14:26.040Z,12.77
2022-11-08T20:16:07.724Z,12.76
2022-11-08T20:17:39.243Z,12.73
2022-11-08T20:19:11.752Z,12.72
2022-11-08T20:20:44.632Z,12.69
2022-11-08T20:22:16.159Z,12.65
2022-11-08T20:23:48.030Z,12.62